createdAt,value
2022-10-17T00:00:31.993Z,63.34
2022-10-17T00:02:58.609Z,63.51
2022-10-17T00:05:25.367Z,63.95
2022-10-17T00:07:52.722Z,63.51
2022-10-17T00:10:19.980Z,64.40
2022-10-17T00:12:47.434Z,64.34
2022-10-17T00:15:18.001Z,62.70
2022-10-17T00:17:44.888Z,63.65
2022-10-17T00:20:12.356Z,63.54
2022-10-17T00:22:38.919Z,62.38
2022-10-17T00:25:05.967Z,62.66
2022-10-17T00:27:39.171Z,62.04
2022-10-17T00:30:07.690Z,61.86
2022-10-17T00:32:34.313Z,61.71
2022-10-17T00:35:01.238Z,62.08
2022-10-17T00:37:27.915Z,62.13
2022-10-17T00:39:55.008Z,62.71
2022-10-17T00:42:22.180Z,63.06
2022-10-17T00:44:48.769Z,63.15
2022-10-17T00:47:22.586Z,63.18
2022-10-17T00:49:49.258Z,63.44
2022-10-17T00:52:20.535Z,63.97
2022-10-17T00:54:53.071Z,64.86
2022-10-17T00:57:20.045Z,64.31
2022-10-17T00:59:52.895Z,63.76
2022-10-17T01:02:21.769Z,64.25
2022-10-17T01:04:52.206Z,63.60
2022-10-17T01:07:18.872Z,63.28
2022-10-17T01:09:47.496Z,62.96
2022-10-17T01:12:22.081Z,62.85
2022-10-17T01:15:22.813Z,62.40
2022-10-17T01:18:02.085Z,62.81
2022-10-17T01:20:50.082Z,62.26
2022-10-17T01:23:25.066Z,63.33
2022-10-17T01:26:09.839Z,62.82
2022-10-17T01:29:05.358Z,62.58
2022-10-17T01:31:45.800Z,62.86
2022-10-17T01:34:15.526Z,63.54
2022-10-17T01:36:59.311Z,63.25
2022-10-17T01:39:46.989Z,63.11
2022-10-17T01:42:14.988Z,64.71
2022-10-17T01:45:02.568Z,63.48
2022-10-17T01:47:33.925Z,63.74
2022-10-17T01:50:14.091Z,63.63
2022-10-17T01:52:55.711Z,64.51
2022-10-17T01:55:41.531Z,64.30
2022-10-17T01:58:24.721Z,64.51
2022-10-17T02:00:53.068Z,64.46
2022-10-17T02:03:21.867Z,64.95
2022-10-17T02:05:48.749Z,65.00
2022-10-17T02:08:25.724Z,65.12
2022-10-17T02:11:01.824Z,65.47
2022-10-17T02:13:50.386Z,66.19
2022-10-17T02:16:38.193Z,66.29
2022-10-17T02:19:34.352Z,65.25
2022-10-17T02:22:24.450Z,65.29
2022-10-17T02:25:09.398Z,65.39
2022-10-17T02:27:52.661Z,64.97
2022-10-17T02:30:34.190Z,64.49
2022-10-17T02:33:12.115Z,65.36
2022-10-17T02:35:44.635Z,66.92
2022-10-17T02:38:12.967Z,66.21
2022-10-17T02:40:40.959Z,64.89
2022-10-17T02:43:07.847Z,66.12
2022-10-17T02:45:37.700Z,65.37
2022-10-17T02:48:26.705Z,65.67
2022-10-17T02:51:07.655Z,65.16
2022-10-17T02:53:46.419Z,64.65
2022-10-17T02:56:19.275Z,65.36
2022-10-17T02:58:51.790Z,66.20
2022-10-17T03:01:19.798Z,65.68
2022-10-17T03:03:46.675Z,65.04
2022-10-17T03:06:13.478Z,65.70
2022-10-17T03:08:40.106Z,66.69
2022-10-17T03:11:07.008Z,66.49
2022-10-17T03:13:36.349Z,65.83
2022-10-17T03:16:07.763Z,65.66
2022-10-17T03:18:34.892Z,65.55
2022-10-17T03:21:03.275Z,66.04
2022-10-17T03:23:30.020Z,66.40
2022-10-17T03:25:57.019Z,65.19
2022-10-17T03:28:24.258Z,65.35
2022-10-17T03:30:51.068Z,64.88
2022-10-17T03:33:17.708Z,65.01
2022-10-17T03:35:44.434Z,65.62
2022-10-17T03:38:11.118Z,65.85
2022-10-17T03:40:38.025Z,67.53
2022-10-17T03:43:04.799Z,67.05
2022-10-17T03:45:32.141Z,65.04
2022-10-17T03:47:59.723Z,65.91
2022-10-17T03:50:26.511Z,67.39
2022-10-17T03:52:53.129Z,67.65
2022-10-17T03:55:19.862Z,66.82
2022-10-17T03:57:47.224Z,66.77
2022-10-17T04:00:16.133Z,67.40
2022-10-17T04:02:48.834Z,67.54
2022-10-17T04:05:18.574Z,67.27
2022-10-17T04:07:45.977Z,67.15
2022-10-17T04:10:14.114Z,67.39
2022-10-17T04:12:42.253Z,66.60
2022-10-17T04:15:09.868Z,66.59
2022-10-17T04:17:38.328Z,66.28
2022-10-17T04:20:06.832Z,67.05
2022-10-17T04:22:34.220Z,67.03
2022-10-17T04:25:01.059Z,67.31
2022-10-17T04:27:33.624Z,66.73
2022-10-17T04:30:01.399Z,67.01
2022-10-17T04:32:31.023Z,66.32
2022-10-17T04:35:06.309Z,67.38
2022-10-17T04:37:33.384Z,66.50
2022-10-17T04:40:03.300Z,65.86
2022-10-17T04:42:32.496Z,66.74
2022-10-17T04:44:59.424Z,67.48
2022-10-17T04:47:26.957Z,67.05
2022-10-17T04:49:55.133Z,70.08
2022-10-17T04:52:22.550Z,67.80
2022-10-17T04:54:50.095Z,68.97
2022-10-17T04:57:18.676Z,70.68
2022-10-17T04:59:54.242Z,71.46
2022-10-17T05:02:35.428Z,69.71
2022-10-17T05:05:03.326Z,70.47
2022-10-17T05:07:30.109Z,71.26
2022-10-17T05:10:02.803Z,69.12
2022-10-17T05:12:31.225Z,69.40
2022-10-17T05:14:58.341Z,68.58
2022-10-17T05:17:26.377Z,69.72
2022-10-17T05:19:52.976Z,68.58
2022-10-17T05:22:19.641Z,68.40
2022-10-17T05:24:46.851Z,68.12
2022-10-17T05:27:13.690Z,69.78
2022-10-17T05:29:40.426Z,68.37
2022-10-17T05:32:17.557Z,68.31
2022-10-17T05:34:44.539Z,69.12
2022-10-17T05:37:11.477Z,72.92
2022-10-17T05:39:39.161Z,72.48
2022-10-17T05:42:07.241Z,71.79
2022-10-17T05:44:35.073Z,70.93
2022-10-17T05:47:02.455Z,72.97
2022-10-17T05:49:40.055Z,72.07
2022-10-17T05:52:12.236Z,70.32
2022-10-17T05:54:53.716Z,70.46
2022-10-17T05:57:20.690Z,69.87
2022-10-17T05:59:47.712Z,69.62
2022-10-17T06:02:19.114Z,71.22
2022-10-17T06:04:46.616Z,71.85
2022-10-17T06:07:14.595Z,71.99
2022-10-17T06:09:43.420Z,72.86
2022-10-17T06:12:10.727Z,71.43
2022-10-17T06:14:37.422Z,73.10
2022-10-17T06:17:12.109Z,71.71
2022-10-17T06:19:44.793Z,69.85
2022-10-17T06:22:14.072Z,70.54
2022-10-17T06:24:40.951Z,69.83
2022-10-17T06:27:11.016Z,70.66
2022-10-17T06:29:39.768Z,69.91
2022-10-17T06:32:09.856Z,70.84
2022-10-17T06:34:40.547Z,70.92
2022-10-17T06:37:07.172Z,71.93
2022-10-17T06:39:36.046Z,70.52
2022-10-17T06:42:10.608Z,72.15
2022-10-17T06:44:49.924Z,70.94
2022-10-17T06:47:23.237Z,70.08
2022-10-17T06:49:56.816Z,71.59
2022-10-17T06:52:31.822Z,70.98
2022-10-17T06:55:21.341Z,73.65
2022-10-17T06:58:17.102Z,74.65
2022-10-17T07:01:11.148Z,73.26
2022-10-17T07:03:38.552Z,71.93
2022-10-17T07:06:05.489Z,71.01
2022-10-17T07:08:32.395Z,70.61
2022-10-17T07:11:13.614Z,69.04
2022-10-17T07:13:40.668Z,68.70
2022-10-17T07:16:08.219Z,68.22
2022-10-17T07:18:36.291Z,67.79
2022-10-17T07:21:04.040Z,67.12
2022-10-17T07:23:31.166Z,66.93
2022-10-17T07:26:03.080Z,67.29
2022-10-17T07:28:29.942Z,66.78
2022-10-17T07:31:12.662Z,66.51
2022-10-17T07:33:39.459Z,65.96
2022-10-17T07:36:06.396Z,66.34
2022-10-17T07:38:33.867Z,65.02
2022-10-17T07:41:03.040Z,63.66
2022-10-17T07:43:30.811Z,63.39
2022-10-17T07:46:01.560Z,63.30
2022-10-17T07:48:30.488Z,63.77
2022-10-17T07:50:57.334Z,63.94
2022-10-17T07:53:24.036Z,64.61
2022-10-17T07:55:51.425Z,65.71
2022-10-17T07:58:18.255Z,65.93
2022-10-17T08:00:48.439Z,66.17
2022-10-17T08:03:15.351Z,67.49
2022-10-17T08:05:42.050Z,66.53
2022-10-17T08:08:08.770Z,66.48
2022-10-17T08:10:35.482Z,65.62
2022-10-17T08:13:02.294Z,64.82
2022-10-17T08:15:31.784Z,66.14
2022-10-17T08:17:59.635Z,65.34
2022-10-17T08:20:26.621Z,65.93
2022-10-17T08:22:54.367Z,64.60
2022-10-17T08:25:21.752Z,64.53
2022-10-17T08:27:48.743Z,65.00
2022-10-17T08:30:15.792Z,64.95
2022-10-17T08:32:43.062Z,63.12
2022-10-17T08:35:10.246Z,63.29
2022-10-17T08:37:37.005Z,63.06
2022-10-17T08:40:04.237Z,63.57
2022-10-17T08:42:49.382Z,62.70
2022-10-17T08:45:48.823Z,63.22
2022-10-17T08:48:20.438Z,62.89
2022-10-17T08:51:02.967Z,62.97
2022-10-17T08:53:36.679Z,62.39
2022-10-17T08:56:19.467Z,61.19
2022-10-17T08:58:51.757Z,60.73
2022-10-17T09:01:42.275Z,59.56
2022-10-17T09:04:46.671Z,60.26
2022-10-17T09:07:13.236Z,60.65
2022-10-17T09:10:03.178Z,60.89
2022-10-17T09:12:49.997Z,60.53
2022-10-17T09:15:46.091Z,59.80
2022-10-17T09:18:23.924Z,60.89
2022-10-17T09:20:58.033Z,61.19
2022-10-17T09:23:37.973Z,60.48
2022-10-17T09:26:11.266Z,60.99
2022-10-17T09:28:40.941Z,60.49
2022-10-17T09:31:23.041Z,59.66
2022-10-17T09:33:54.638Z,59.88
2022-10-17T09:36:25.881Z,59.83
2022-10-17T09:38:55.542Z,59.19
2022-10-17T09:41:51.532Z,59.42
2022-10-17T09:44:58.156Z,59.26
2022-10-17T09:48:01.016Z,59.21
2022-10-17T09:50:31.364Z,59.46
2022-10-17T09:53:08.579Z,58.81
2022-10-17T09:55:42.395Z,57.93
2022-10-17T09:58:10.391Z,58.10
2022-10-17T10:00:43.007Z,57.91
2022-10-17T10:03:09.599Z,57.33
2022-10-17T10:05:36.404Z,56.54
2022-10-17T10:08:12.623Z,56.77
2022-10-17T10:10:43.201Z,55.80
2022-10-17T10:13:12.928Z,56.33
2022-10-17T10:15:42.152Z,56.98
2022-10-17T10:18:27.140Z,56.45
2022-10-17T10:21:24.637Z,56.18
2022-10-17T10:24:17.575Z,56.48
2022-10-17T10:26:46.857Z,56.40
2022-10-17T10:29:26.748Z,55.55
2022-10-17T10:31:53.921Z,56.80
2022-10-17T10:34:31.347Z,55.60
2022-10-17T10:37:05.960Z,54.37
2022-10-17T10:39:38.953Z,55.69
2022-10-17T10:42:18.614Z,54.45
2022-10-17T10:44:46.712Z,54.87
2022-10-17T10:47:26.337Z,53.20
2022-10-17T10:50:17.536Z,51.44
2022-10-17T10:53:10.824Z,52.53
2022-10-17T10:55:58.690Z,52.17
2022-10-17T10:58:52.713Z,51.32
2022-10-17T11:01:29.606Z,52.81
2022-10-17T11:04:01.155Z,51.59
2022-10-17T11:06:30.532Z,52.36
2022-10-17T11:09:33.680Z,51.02
2022-10-17T11:12:45.730Z,51.08
2022-10-17T11:15:54.475Z,50.49
2022-10-17T11:18:35.671Z,50.63
2022-10-17T11:24:34.370Z,48.91
2022-10-17T11:27:04.349Z,48.13
2022-10-17T11:29:33.368Z,48.81
2022-10-17T11:32:15.529Z,48.65
2022-10-17T11:34:51.437Z,48.96
2022-10-17T11:37:26.039Z,49.47
2022-10-17T11:40:21.901Z,49.53
2022-10-17T11:42:57.162Z,50.12
2022-10-17T11:45:27.219Z,49.34
2022-10-17T11:48:10.805Z,49.33
2022-10-17T11:53:40.680Z,49.24
2022-10-17T11:56:11.480Z,48.29
2022-10-17T11:58:54.668Z,47.64
2022-10-17T12:01:44.203Z,48.45
2022-10-17T12:04:16.604Z,48.87
2022-10-17T12:07:04.466Z,50.23
2022-10-17T12:09:55.282Z,48.70
2022-10-17T12:12:27.440Z,47.08
2022-10-17T12:15:14.888Z,48.25
2022-10-17T12:17:45.918Z,47.26
2022-10-17T12:20:23.576Z,46.85
2022-10-17T12:23:10.345Z,46.56
2022-10-17T12:25:49.485Z,47.40
2022-10-17T12:28:36.181Z,47.67
2022-10-17T12:31:29.745Z,47.92
2022-10-17T12:34:02.982Z,47.58
2022-10-17T12:36:29.548Z,47.50
2022-10-17T12:39:02.378Z,47.01
2022-10-17T12:41:38.042Z,47.67
2022-10-17T12:44:14.099Z,47.63
2022-10-17T12:46:44.351Z,47.97
2022-10-17T12:49:35.885Z,47.99
2022-10-17T12:52:17.743Z,48.58
2022-10-17T12:55:12.565Z,47.32
2022-10-17T12:58:05.075Z,45.29
2022-10-17T13:01:19.099Z,44.29
2022-10-17T13:03:46.278Z,44.72
2022-10-17T13:06:27.912Z,43.74
2022-10-17T13:09:03.444Z,42.42
2022-10-17T13:11:34.024Z,43.19
2022-10-17T13:14:03.468Z,43.22
2022-10-17T13:16:36.051Z,43.14
2022-10-17T13:19:12.264Z,43.39
2022-10-17T13:21:38.971Z,43.41
2022-10-17T13:24:31.100Z,43.42
2022-10-17T13:26:58.696Z,43.71
2022-10-17T13:29:28.744Z,43.89
2022-10-17T13:32:03.919Z,44.13
2022-10-17T13:34:32.263Z,43.57
2022-10-17T13:37:02.892Z,44.37
2022-10-17T13:39:52.414Z,44.16
2022-10-17T13:42:27.465Z,43.62
2022-10-17T13:44:55.228Z,44.31
2022-10-17T13:47:28.060Z,44.64
2022-10-17T13:49:55.838Z,43.93
2022-10-17T13:52:26.480Z,44.08
2022-10-17T13:54:54.937Z,44.65
2022-10-17T13:57:23.823Z,45.28
2022-10-17T13:59:57.704Z,45.27
2022-10-17T14:02:27.703Z,45.68
2022-10-17T14:05:22.924Z,45.63
2022-10-17T14:08:14.516Z,45.66
2022-10-17T14:10:42.500Z,46.11
2022-10-17T14:13:22.748Z,45.12
2022-10-17T14:15:51.377Z,45.67
2022-10-17T14:18:22.972Z,45.74
2022-10-17T14:21:34.017Z,46.44
2022-10-17T14:23:43.723Z,46.66
2022-10-17T14:26:12.132Z,46.93
2022-10-17T14:28:40.745Z,47.22
2022-10-17T14:31:15.354Z,47.43
2022-10-17T14:33:50.785Z,46.80
2022-10-17T14:36:19.046Z,46.90
2022-10-17T14:38:48.368Z,47.28
2022-10-17T14:41:43.786Z,47.37
2022-10-17T14:44:23.010Z,47.29
2022-10-17T14:46:54.690Z,48.17
2022-10-17T14:49:28.078Z,47.11
2022-10-17T14:52:25.473Z,48.10
2022-10-17T14:54:52.127Z,48.67
2022-10-17T14:57:34.772Z,48.17
2022-10-17T15:00:01.706Z,49.02
2022-10-17T15:02:30.254Z,48.99
2022-10-17T15:04:57.363Z,49.62
2022-10-17T15:07:24.279Z,50.15
2022-10-17T15:09:52.438Z,50.95
2022-10-17T15:12:22.997Z,51.25
2022-10-17T15:14:50.641Z,52.90
2022-10-17T15:17:29.041Z,52.04
2022-10-17T15:19:56.703Z,51.28
2022-10-17T15:22:23.856Z,52.33
2022-10-17T15:24:50.648Z,52.44
2022-10-17T15:27:23.147Z,52.69
2022-10-17T15:29:50.810Z,51.76
2022-10-17T15:32:17.557Z,52.18
2022-10-17T15:34:44.850Z,51.29
2022-10-17T15:37:23.154Z,51.39
2022-10-17T15:39:54.084Z,51.24
2022-10-17T15:42:23.468Z,52.13
2022-10-17T15:44:50.359Z,52.43
2022-10-17T15:47:28.991Z,52.97
2022-10-17T15:49:55.995Z,52.89
2022-10-17T15:52:23.650Z,53.82
2022-10-17T15:54:50.386Z,54.87
2022-10-17T15:57:21.068Z,55.48
2022-10-17T15:59:49.243Z,55.97
2022-10-17T16:02:18.252Z,56.68
2022-10-17T16:04:45.201Z,57.44
2022-10-17T16:07:11.835Z,57.33
2022-10-17T16:09:38.655Z,57.58
2022-10-17T16:12:07.013Z,58.73
2022-10-17T16:14:33.638Z,58.79
2022-10-17T16:17:00.656Z,58.89
2022-10-17T16:19:29.913Z,59.27
2022-10-17T16:21:59.645Z,59.44
2022-10-17T16:24:28.863Z,59.53
2022-10-17T16:26:55.546Z,59.82
2022-10-17T16:29:22.145Z,59.85
2022-10-17T16:31:48.754Z,59.98
2022-10-17T16:34:16.016Z,60.45
2022-10-17T16:36:42.771Z,59.85
2022-10-17T16:39:09.662Z,60.93
2022-10-17T16:41:39.323Z,61.06
2022-10-17T16:44:13.004Z,61.19
2022-10-17T16:46:39.620Z,61.06
2022-10-17T16:49:07.382Z,60.93
2022-10-17T16:51:35.944Z,59.68
2022-10-17T16:54:04.528Z,60.52
2022-10-17T16:56:32.769Z,60.60
2022-10-17T16:59:01.076Z,60.39
2022-10-17T17:01:31.566Z,60.62
2022-10-17T17:03:58.661Z,60.78
2022-10-17T17:06:28.761Z,61.39
2022-10-17T17:08:56.398Z,61.33
2022-10-17T17:11:25.311Z,61.30
2022-10-17T17:13:52.234Z,61.16
2022-10-17T17:16:23.851Z,61.27
2022-10-17T17:18:55.343Z,61.13
2022-10-17T17:21:22.146Z,61.57
2022-10-17T17:23:48.782Z,61.88
2022-10-17T17:26:22.200Z,61.58
2022-10-17T17:28:50.045Z,61.60
2022-10-17T17:31:20.508Z,61.42
2022-10-17T17:33:47.335Z,61.54
2022-10-17T17:36:19.193Z,61.21
2022-10-17T17:38:47.304Z,60.80
2022-10-17T17:41:15.364Z,60.63
2022-10-17T17:43:42.875Z,60.70
2022-10-17T17:46:09.887Z,60.90
2022-10-17T17:48:40.943Z,60.46
2022-10-17T17:51:09.173Z,60.54
2022-10-17T17:53:37.112Z,60.34
2022-10-17T17:56:11.630Z,59.71
2022-10-17T17:58:38.330Z,59.43
2022-10-17T18:01:15.130Z,59.94
2022-10-17T18:03:41.948Z,60.35
2022-10-17T18:06:08.797Z,60.38
2022-10-17T18:08:35.852Z,60.83
2022-10-17T18:11:03.184Z,60.94
2022-10-17T18:13:29.859Z,60.76
2022-10-17T18:15:58.248Z,61.07
2022-10-17T18:18:26.569Z,60.31
2022-10-17T18:20:54.371Z,61.01
2022-10-17T18:23:21.693Z,60.99
2022-10-17T18:25:55.959Z,60.68
2022-10-17T18:28:23.645Z,60.35
2022-10-17T18:30:50.572Z,60.22
2022-10-17T18:33:17.249Z,60.17
2022-10-17T18:35:43.951Z,59.85
2022-10-17T18:38:10.600Z,59.81
2022-10-17T18:40:37.418Z,59.96
2022-10-17T18:43:04.143Z,59.74
2022-10-17T18:45:30.792Z,59.74
2022-10-17T18:47:57.475Z,60.26
2022-10-17T18:50:25.053Z,60.53
2022-10-17T18:52:51.770Z,60.30
2022-10-17T18:55:20.532Z,59.90
2022-10-17T18:57:49.294Z,60.57
2022-10-17T19:00:16.994Z,60.88
2022-10-17T19:02:43.662Z,60.58
2022-10-17T19:05:10.673Z,60.37
2022-10-17T19:07:37.271Z,60.18
2022-10-17T19:10:04.069Z,59.95
2022-10-17T19:12:30.800Z,60.07
2022-10-17T19:14:57.427Z,60.32
2022-10-17T19:17:24.062Z,60.22
2022-10-17T19:19:52.346Z,60.78
2022-10-17T19:22:19.172Z,60.39
2022-10-17T19:24:45.744Z,60.44
2022-10-17T19:27:12.394Z,60.48
2022-10-17T19:29:43.436Z,60.28
2022-10-17T19:32:15.696Z,60.40
2022-10-17T19:34:44.831Z,60.73
2022-10-17T19:37:11.412Z,60.62
2022-10-17T19:39:38.215Z,60.47
2022-10-17T19:42:06.871Z,60.40
2022-10-17T19:44:34.664Z,60.79
2022-10-17T19:47:01.236Z,61.24
2022-10-17T19:49:28.029Z,61.73
2022-10-17T19:51:54.574Z,61.31
2022-10-17T19:54:21.215Z,61.80
2022-10-17T19:56:48.566Z,61.71
2022-10-17T19:59:16.458Z,62.27
2022-10-17T20:01:44.298Z,61.67
2022-10-17T20:04:11.725Z,62.28
2022-10-17T20:06:38.815Z,61.98
2022-10-17T20:09:06.867Z,62.41
2022-10-17T20:11:35.247Z,63.63
2022-10-17T20:14:02.011Z,62.70
2022-10-17T20:16:31.472Z,63.76
2022-10-17T20:19:03.986Z,63.32
2022-10-17T20:21:32.970Z,63.27
2022-10-17T20:24:00.174Z,63.60
2022-10-17T20:26:42.851Z,63.05
2022-10-17T20:29:15.961Z,63.44
2022-10-17T20:31:44.564Z,63.45
2022-10-17T20:34:16.090Z,63.77
2022-10-17T20:36:43.044Z,64.26
2022-10-17T20:39:12.139Z,63.72
2022-10-17T20:41:38.797Z,64.81
2022-10-17T20:44:06.951Z,65.29
2022-10-17T20:46:37.834Z,64.86
2022-10-17T20:49:08.027Z,64.17
2022-10-17T20:51:35.545Z,64.13
2022-10-17T20:54:03.265Z,64.47
2022-10-17T20:56:31.705Z,64.37
2022-10-17T20:59:01.449Z,64.86
2022-10-17T21:01:29.640Z,65.15
2022-10-17T21:03:59.635Z,65.61
2022-10-17T21:06:27.870Z,65.08
2022-10-17T21:08:55.676Z,65.41
2022-10-17T21:11:24.660Z,65.13
2022-10-17T21:14:05.553Z,64.77
2022-10-17T21:16:37.245Z,65.53
2022-10-17T21:19:05.488Z,65.76
2022-10-17T21:21:34.698Z,65.73
2022-10-17T21:24:04.949Z,65.79
2022-10-17T21:26:36.400Z,66.23
2022-10-17T21:29:06.005Z,66.61
2022-10-17T21:31:37.922Z,66.87
2022-10-17T21:34:10.049Z,67.71
2022-10-17T21:36:36.860Z,67.17
2022-10-17T21:39:04.269Z,68.04
2022-10-17T21:41:31.495Z,68.20
2022-10-17T21:44:04.327Z,67.86
2022-10-17T21:46:31.833Z,68.03
2022-10-17T21:48:59.564Z,68.31
2022-10-17T21:51:27.348Z,69.61
2022-10-17T21:53:56.096Z,69.77
2022-10-17T21:56:25.192Z,69.95
2022-10-17T21:58:51.828Z,70.85
2022-10-17T22:01:22.704Z,70.81
2022-10-17T22:03:51.928Z,70.48
2022-10-17T22:09:17.295Z,71.27
2022-10-17T22:11:49.010Z,72.44
2022-10-17T22:14:18.555Z,72.26
2022-10-17T22:16:46.611Z,70.38
2022-10-17T22:19:16.210Z,70.19
2022-10-17T22:21:42.876Z,70.67
2022-10-17T22:24:12.020Z,70.37
2022-10-17T22:26:39.211Z,70.60
2022-10-17T22:29:08.129Z,70.68
2022-10-17T22:31:35.665Z,71.01
2022-10-17T22:34:03.567Z,69.77
2022-10-17T22:36:32.545Z,69.21
2022-10-17T22:38:59.181Z,69.18
2022-10-17T22:41:25.821Z,69.92
2022-10-17T22:43:52.463Z,70.61
2022-10-17T22:46:19.114Z,70.45
2022-10-17T22:48:45.954Z,70.71
2022-10-17T22:51:13.378Z,70.01
2022-10-17T22:53:40.106Z,70.63
2022-10-17T22:56:13.721Z,69.96
2022-10-17T22:58:41.019Z,70.27
2022-10-17T23:01:10.142Z,70.25
2022-10-17T23:03:36.909Z,69.83
2022-10-17T23:06:03.839Z,68.90
2022-10-17T23:08:31.082Z,69.25
2022-10-17T23:10:57.921Z,69.55
2022-10-17T23:13:24.643Z,69.23
2022-10-17T23:15:52.959Z,69.55
2022-10-17T23:18:20.427Z,70.17
2022-10-17T23:20:47.341Z,71.64
2022-10-17T23:23:14.492Z,70.33
2022-10-17T23:25:41.543Z,71.54
2022-10-17T23:28:08.788Z,72.01
2022-10-17T23:30:36.203Z,72.76
2022-10-17T23:33:03.131Z,71.53
2022-10-17T23:35:29.796Z,71.48
2022-10-17T23:37:56.575Z,70.36
2022-10-17T23:40:23.266Z,69.95
2022-10-17T23:42:49.976Z,70.57
2022-10-17T23:45:16.750Z,70.25
2022-10-17T23:47:43.373Z,69.77
2022-10-17T23:50:10.053Z,69.84
2022-10-17T23:52:36.729Z,70.37
2022-10-17T23:55:04.355Z,69.95
2022-10-17T23:57:31.143Z,69.87
2022-10-17T23:59:57.823Z,69.07
